ハルビン の空港の天気 - METARとTAF

ハルビン太平国際空港 ( ZYHB / HRB ) - 中華人民共和国 黒竜江省ハルビン市
飛行場実況気象(Metar)
観測時間01/21 01:00 CST (01/20 17:00 UTC)
風向・風速南南東 2m/s
視程5000m
天気現象煙霧
なし
気温-22℃
湿度77%
気圧1026hPa
METARZYHB 201700Z 16002MPS 5000 HZ NSC M22/M25 Q1026 NOSIG
過去の天気等 Google飛行場航空写真 Wunderground天気予報

過去48時間のMETAR

飛行場予報(TAF)
発表時間: 1/20 21:01 CST (1/20 13:01 UTC)
予報対象時間: 21日2時 CST ~ 22日2時 CST
風向・風速西南西 3m/s
視程3,000m
天気現象煙霧
全天の4割程度の雲 雲底高度 610m
TAF ZYHB 201301Z 2018/2118 24003MPS 3000 HZ SCT020 TXM14/06Z TNM25/22Z